createdAt,value
2022-11-15T00:00:35.763Z,6.54
2022-11-15T00:01:35.805Z,6.54
2022-11-15T00:02:35.737Z,6.54
2022-11-15T00:03:35.726Z,6.54
2022-11-15T00:04:35.704Z,6.52
2022-11-15T00:05:35.707Z,6.52
2022-11-15T00:06:35.735Z,6.51
2022-11-15T00:07:54.562Z,6.52
2022-11-15T00:08:36.697Z,6.54
2022-11-15T00:09:35.777Z,6.51
2022-11-15T00:10:35.655Z,6.52
2022-11-15T00:11:35.670Z,6.51
2022-11-15T00:12:35.630Z,6.49
2022-11-15T00:13:35.968Z,6.48
2022-11-15T00:14:35.585Z,6.46
2022-11-15T00:15:35.597Z,6.44
2022-11-15T00:16:35.611Z,6.43
2022-11-15T00:17:35.587Z,6.41
2022-11-15T00:18:35.558Z,6.40
2022-11-15T00:19:35.531Z,6.37
2022-11-15T00:20:35.577Z,6.38
2022-11-15T00:21:35.499Z,6.40
2022-11-15T00:22:35.511Z,6.41
2022-11-15T00:23:35.481Z,6.46
2022-11-15T00:24:36.521Z,6.44
2022-11-15T00:25:35.473Z,6.41
2022-11-15T00:26:35.481Z,6.40
2022-11-15T00:27:35.430Z,6.36
2022-11-15T00:28:35.439Z,6.31
2022-11-15T00:29:35.422Z,6.28
2022-11-15T00:30:35.433Z,6.27
2022-11-15T00:31:35.441Z,6.25
2022-11-15T00:32:35.376Z,6.22
2022-11-15T00:33:35.438Z,6.21
2022-11-15T00:34:35.375Z,6.21
2022-11-15T00:35:35.416Z,6.21
2022-11-15T00:36:35.349Z,6.22
2022-11-15T00:37:35.341Z,6.25
2022-11-15T00:38:35.326Z,6.27
2022-11-15T00:39:35.312Z,6.27
2022-11-15T00:40:35.291Z,6.28
2022-11-15T00:41:35.301Z,6.27
2022-11-15T00:42:35.282Z,6.22
2022-11-15T00:43:35.266Z,6.22
2022-11-15T00:44:35.230Z,6.27
2022-11-15T00:45:35.255Z,6.22
2022-11-15T00:46:35.204Z,6.27
2022-11-15T00:47:35.203Z,6.27
2022-11-15T00:48:35.236Z,6.28
2022-11-15T00:49:35.175Z,6.30
2022-11-15T00:50:35.204Z,6.30
2022-11-15T00:51:35.147Z,6.27
2022-11-15T00:52:35.135Z,6.28
2022-11-15T00:53:35.405Z,6.30
2022-11-15T00:54:35.114Z,6.27
2022-11-15T00:55:35.127Z,6.30
2022-11-15T00:56:35.096Z,6.25
2022-11-15T00:57:35.086Z,6.27
2022-11-15T00:58:35.111Z,6.27
2022-11-15T00:59:35.056Z,6.27
2022-11-15T01:00:35.141Z,6.25
2022-11-15T01:01:36.088Z,6.25
2022-11-15T01:02:35.040Z,6.21
2022-11-15T01:03:35.037Z,6.18
2022-11-15T01:04:35.038Z,6.17
2022-11-15T01:05:34.987Z,6.12
2022-11-15T01:06:35.021Z,6.09
2022-11-15T01:07:35.082Z,6.06
2022-11-15T01:08:34.962Z,6.01
2022-11-15T01:09:34.989Z,5.99
2022-11-15T01:10:35.077Z,5.96
2022-11-15T01:11:34.918Z,5.94
2022-11-15T01:12:34.961Z,5.91
2022-11-15T01:13:34.912Z,5.89
2022-11-15T01:14:34.902Z,5.86
2022-11-15T01:15:34.888Z,5.86
2022-11-15T01:16:34.945Z,5.85
2022-11-15T01:17:34.868Z,5.83
2022-11-15T01:18:34.855Z,5.85
2022-11-15T01:19:34.914Z,5.85
2022-11-15T01:20:34.857Z,5.85
2022-11-15T01:21:34.839Z,5.85
2022-11-15T01:22:34.834Z,5.86
2022-11-15T01:23:35.085Z,5.85
2022-11-15T01:24:34.794Z,5.85
2022-11-15T01:25:34.751Z,5.85
2022-11-15T01:26:34.754Z,5.83
2022-11-15T01:27:34.770Z,5.82
2022-11-15T01:28:34.735Z,5.81
2022-11-15T01:29:34.736Z,5.79
2022-11-15T01:30:34.724Z,5.79
2022-11-15T01:31:34.737Z,5.78
2022-11-15T01:32:34.682Z,5.76
2022-11-15T01:33:34.677Z,5.76
2022-11-15T01:34:34.657Z,5.74
2022-11-15T01:35:34.636Z,5.68
2022-11-15T01:36:34.689Z,5.67
2022-11-15T01:37:34.603Z,5.64
2022-11-15T01:38:34.593Z,5.63
2022-11-15T01:39:34.609Z,5.60
2022-11-15T01:40:34.609Z,5.58
2022-11-15T01:41:34.578Z,5.56
2022-11-15T01:42:34.594Z,5.56
2022-11-15T01:43:34.736Z,5.56
2022-11-15T01:44:34.551Z,5.56
2022-11-15T01:45:34.535Z,5.54
2022-11-15T01:46:34.560Z,5.54
2022-11-15T01:47:34.513Z,5.57
2022-11-15T01:48:34.528Z,5.58
2022-11-15T01:49:34.477Z,5.58
2022-11-15T01:50:34.477Z,5.61
2022-11-15T01:51:34.477Z,5.64
2022-11-15T01:52:34.440Z,5.65
2022-11-15T01:53:34.635Z,5.65
2022-11-15T01:54:34.480Z,5.65
2022-11-15T01:55:34.691Z,5.63
2022-11-15T01:56:34.411Z,5.61
2022-11-15T01:57:34.400Z,5.60
2022-11-15T01:58:34.382Z,5.61
2022-11-15T01:59:34.382Z,5.58
2022-11-15T02:00:34.422Z,5.58
2022-11-15T02:01:34.363Z,5.56
2022-11-15T02:02:34.333Z,5.54
2022-11-15T02:03:34.355Z,5.57
2022-11-15T02:04:34.311Z,5.57
2022-11-15T02:05:34.338Z,5.57
2022-11-15T02:06:34.282Z,5.54
2022-11-15T02:07:34.326Z,5.53
2022-11-15T02:08:34.248Z,5.53
2022-11-15T02:09:34.242Z,5.49
2022-11-15T02:10:34.361Z,5.48
2022-11-15T02:11:34.225Z,5.49
2022-11-15T02:12:34.216Z,5.48
2022-11-15T02:13:34.346Z,5.48
2022-11-15T02:14:34.208Z,5.48
2022-11-15T02:15:34.185Z,5.45
2022-11-15T02:16:34.205Z,5.43
2022-11-15T02:17:34.163Z,5.42
2022-11-15T02:18:34.142Z,5.42
2022-11-15T02:19:34.136Z,5.40
2022-11-15T02:20:34.133Z,5.39
2022-11-15T02:21:34.112Z,5.38
2022-11-15T02:22:34.126Z,5.36
2022-11-15T02:23:34.419Z,5.36
2022-11-15T02:24:34.062Z,5.36
2022-11-15T02:25:34.072Z,5.38
2022-11-15T02:26:34.053Z,5.39
2022-11-15T02:27:34.024Z,5.42
2022-11-15T02:28:34.077Z,5.43
2022-11-15T02:29:34.057Z,5.45
2022-11-15T02:30:34.025Z,5.45
2022-11-15T02:31:34.018Z,5.48
2022-11-15T02:32:34.025Z,5.51
2022-11-15T02:33:34.215Z,5.53
2022-11-15T02:34:34.001Z,5.53
2022-11-15T02:35:33.968Z,5.51
2022-11-15T02:36:33.933Z,5.53
2022-11-15T02:37:33.937Z,5.53
2022-11-15T02:38:33.908Z,5.53
2022-11-15T02:39:33.949Z,5.51
2022-11-15T02:40:33.950Z,5.48
2022-11-15T02:41:33.868Z,5.48
2022-11-15T02:42:33.889Z,5.46
2022-11-15T02:43:34.075Z,5.43
2022-11-15T02:44:33.857Z,5.45
2022-11-15T02:45:33.838Z,5.42
2022-11-15T02:46:33.807Z,5.42
2022-11-15T02:47:33.853Z,5.40
2022-11-15T02:48:33.818Z,5.39
2022-11-15T02:49:33.786Z,5.39
2022-11-15T02:50:33.774Z,5.38
2022-11-15T02:51:33.780Z,5.38
2022-11-15T02:52:33.770Z,5.35
2022-11-15T02:53:33.974Z,5.35
2022-11-15T02:54:33.739Z,5.31
2022-11-15T02:55:33.725Z,5.35
2022-11-15T02:56:33.712Z,5.36
2022-11-15T02:57:33.688Z,5.36
2022-11-15T02:58:33.702Z,5.38
2022-11-15T02:59:33.670Z,5.38
2022-11-15T03:00:33.733Z,5.38
2022-11-15T03:01:33.673Z,5.36
2022-11-15T03:02:33.633Z,5.36
2022-11-15T03:03:33.968Z,5.39
2022-11-15T03:04:33.612Z,5.42
2022-11-15T03:05:33.643Z,5.45
2022-11-15T03:06:33.601Z,5.46
2022-11-15T03:07:33.680Z,5.46
2022-11-15T03:08:33.561Z,5.48
2022-11-15T03:09:33.565Z,5.46
2022-11-15T03:10:33.566Z,5.46
2022-11-15T03:11:33.546Z,5.46
2022-11-15T03:12:33.528Z,5.49
2022-11-15T03:13:33.818Z,5.49
2022-11-15T03:14:33.505Z,5.53
2022-11-15T03:15:33.486Z,5.53
2022-11-15T03:16:33.455Z,5.54
2022-11-15T03:17:33.463Z,5.54
2022-11-15T03:18:33.436Z,5.51
2022-11-15T03:19:33.469Z,5.53
2022-11-15T03:20:33.415Z,5.54
2022-11-15T03:21:33.432Z,5.54
2022-11-15T03:22:33.394Z,5.53
2022-11-15T03:23:33.762Z,5.51
2022-11-15T03:24:33.408Z,5.51
2022-11-15T03:25:33.387Z,5.53
2022-11-15T03:26:33.349Z,5.56
2022-11-15T03:27:33.380Z,5.57
2022-11-15T03:28:33.348Z,5.57
2022-11-15T03:29:33.330Z,5.63
2022-11-15T03:30:33.360Z,5.65
2022-11-15T03:31:33.310Z,5.68
2022-11-15T03:32:33.290Z,5.74
2022-11-15T03:33:33.640Z,5.82
2022-11-15T03:34:33.257Z,5.85
2022-11-15T03:35:33.289Z,5.89
2022-11-15T03:36:33.254Z,5.86
2022-11-15T03:37:33.270Z,5.93
2022-11-15T03:38:33.247Z,5.99
2022-11-15T03:39:33.188Z,6.03
2022-11-15T03:40:33.178Z,6.06
2022-11-15T03:41:33.181Z,6.12
2022-11-15T03:42:33.202Z,6.15
2022-11-15T03:43:33.495Z,6.15
2022-11-15T03:44:33.142Z,6.12
2022-11-15T03:45:33.136Z,6.03
2022-11-15T03:46:33.122Z,5.94
2022-11-15T03:47:33.160Z,5.86
2022-11-15T03:48:33.089Z,5.78
2022-11-15T03:49:33.144Z,5.65
2022-11-15T03:50:33.081Z,5.58
2022-11-15T03:51:33.050Z,5.53
2022-11-15T03:52:33.063Z,5.46
2022-11-15T03:53:33.427Z,5.40
2022-11-15T03:54:33.051Z,5.36
2022-11-15T03:55:33.012Z,5.31
2022-11-15T03:56:32.999Z,5.31
2022-11-15T03:57:32.994Z,5.30
2022-11-15T03:58:32.985Z,5.27
2022-11-15T03:59:32.974Z,5.25
2022-11-15T04:00:32.980Z,5.24
2022-11-15T04:01:32.989Z,5.22
2022-11-15T04:02:32.947Z,5.20
2022-11-15T04:03:33.228Z,5.22
2022-11-15T04:04:32.906Z,5.21
2022-11-15T04:05:32.904Z,5.22
2022-11-15T04:06:32.904Z,5.21
2022-11-15T04:07:32.927Z,5.22
2022-11-15T04:08:32.898Z,5.21
2022-11-15T04:09:32.857Z,5.22
2022-11-15T04:10:32.847Z,5.21
2022-11-15T04:11:32.861Z,5.21
2022-11-15T04:12:32.817Z,5.20
2022-11-15T04:13:33.265Z,5.17
2022-11-15T04:14:32.825Z,5.17
2022-11-15T04:15:32.779Z,5.17
2022-11-15T04:16:32.769Z,5.15
2022-11-15T04:17:32.761Z,5.15
2022-11-15T04:18:32.750Z,5.15
2022-11-15T04:19:32.736Z,5.15
2022-11-15T04:20:32.727Z,5.20
2022-11-15T04:21:32.716Z,5.20
2022-11-15T04:22:32.717Z,5.21
2022-11-15T04:23:33.040Z,5.22
2022-11-15T04:24:32.678Z,5.24
2022-11-15T04:25:32.700Z,5.24
2022-11-15T04:26:32.650Z,5.25
2022-11-15T04:27:32.652Z,5.27
2022-11-15T04:28:32.608Z,5.24
2022-11-15T04:29:32.622Z,5.25
2022-11-15T04:30:32.600Z,5.24
2022-11-15T04:31:32.638Z,5.24
2022-11-15T04:32:32.568Z,5.20
2022-11-15T04:33:32.869Z,5.21
2022-11-15T04:34:32.560Z,5.25
2022-11-15T04:35:32.540Z,5.33
2022-11-15T04:36:32.575Z,5.31
2022-11-15T04:37:32.521Z,5.30
2022-11-15T04:38:32.513Z,5.30
2022-11-15T04:39:32.496Z,5.27
2022-11-15T04:40:32.503Z,5.22
2022-11-15T04:41:32.471Z,5.20
2022-11-15T04:42:32.500Z,5.18
2022-11-15T04:43:32.934Z,5.13
2022-11-15T04:44:32.435Z,5.12
2022-11-15T04:45:32.470Z,5.07
2022-11-15T04:46:32.415Z,5.04
2022-11-15T04:47:32.411Z,5.03
2022-11-15T04:48:32.397Z,5.02
2022-11-15T04:49:32.387Z,5.02
2022-11-15T04:50:32.382Z,5.02
2022-11-15T04:51:32.390Z,5.03
2022-11-15T04:52:32.345Z,5.00
2022-11-15T04:53:32.733Z,4.99
2022-11-15T04:54:32.305Z,4.94
2022-11-15T04:55:32.307Z,4.96
2022-11-15T04:56:32.324Z,4.97
2022-11-15T04:57:32.305Z,4.96
2022-11-15T04:58:32.254Z,4.96
2022-11-15T04:59:32.287Z,4.97
2022-11-15T05:00:32.257Z,4.97
2022-11-15T05:01:32.243Z,4.94
2022-11-15T05:02:32.267Z,4.91
2022-11-15T05:03:32.657Z,4.89
2022-11-15T05:04:32.195Z,4.88
2022-11-15T05:05:32.198Z,4.88
2022-11-15T05:06:32.188Z,4.89
2022-11-15T05:07:32.215Z,4.89
2022-11-15T05:08:32.191Z,4.91
2022-11-15T05:09:32.146Z,4.89
2022-11-15T05:10:32.138Z,4.92
2022-11-15T05:11:32.132Z,4.94
2022-11-15T05:12:32.116Z,4.96
2022-11-15T05:13:32.456Z,4.99
2022-11-15T05:14:32.067Z,4.96
2022-11-15T05:15:32.074Z,4.94
2022-11-15T05:16:32.060Z,4.92
2022-11-15T05:17:32.058Z,4.89
2022-11-15T05:18:32.051Z,4.88
2022-11-15T05:19:32.068Z,4.88
2022-11-15T05:20:32.012Z,4.86
2022-11-15T05:21:32.026Z,4.85
2022-11-15T05:22:31.991Z,4.85
2022-11-15T05:23:32.194Z,4.86
2022-11-15T05:24:32.000Z,4.86
2022-11-15T05:25:31.951Z,4.86
2022-11-15T05:26:31.958Z,4.86
2022-11-15T05:27:31.939Z,4.86
2022-11-15T05:28:31.920Z,4.88
2022-11-15T05:29:31.899Z,4.89
2022-11-15T05:30:31.942Z,4.89
2022-11-15T05:31:31.904Z,4.91
2022-11-15T05:32:31.903Z,4.89
2022-11-15T05:33:32.182Z,4.88
2022-11-15T05:34:31.851Z,4.86
2022-11-15T05:35:31.873Z,4.85
2022-11-15T05:36:31.824Z,4.86
2022-11-15T05:37:31.845Z,4.85
2022-11-15T05:38:31.814Z,4.85
2022-11-15T05:39:31.845Z,4.86
2022-11-15T05:40:31.779Z,4.85
2022-11-15T05:41:31.826Z,4.82
2022-11-15T05:42:31.763Z,4.80
2022-11-15T05:43:32.027Z,4.82
2022-11-15T05:44:31.731Z,4.82
2022-11-15T05:45:31.758Z,4.82
2022-11-15T05:46:31.735Z,4.78
2022-11-15T05:47:31.722Z,4.75
2022-11-15T05:48:31.687Z,4.73
2022-11-15T05:49:31.684Z,4.73
2022-11-15T05:50:31.678Z,4.72
2022-11-15T05:51:31.684Z,4.69
2022-11-15T05:52:31.677Z,4.66
2022-11-15T05:53:31.949Z,4.63
2022-11-15T05:54:31.653Z,4.62
2022-11-15T05:55:31.608Z,4.63
2022-11-15T05:56:31.609Z,4.59
2022-11-15T05:57:31.618Z,4.55
2022-11-15T05:58:31.578Z,4.54
2022-11-15T05:59:31.549Z,4.59
2022-11-15T06:00:31.589Z,4.62
2022-11-15T06:01:31.561Z,4.63
2022-11-15T06:02:31.610Z,4.66
2022-11-15T06:03:31.898Z,4.66
2022-11-15T06:04:31.521Z,4.69
2022-11-15T06:05:31.530Z,4.69
2022-11-15T06:06:31.486Z,4.73
2022-11-15T06:07:31.521Z,4.75
2022-11-15T06:08:31.501Z,4.75
2022-11-15T06:09:31.458Z,4.77
2022-11-15T06:10:31.460Z,4.80
2022-11-15T06:11:31.431Z,4.78
2022-11-15T06:12:31.428Z,4.78
2022-11-15T06:13:31.633Z,4.78
2022-11-15T06:14:31.420Z,4.78
2022-11-15T06:15:31.449Z,4.77
2022-11-15T06:16:31.371Z,4.78
2022-11-15T06:17:31.370Z,4.80
2022-11-15T06:18:31.353Z,4.82
2022-11-15T06:19:31.340Z,4.85
2022-11-15T06:20:31.351Z,4.85
2022-11-15T06:21:31.377Z,4.85
2022-11-15T06:22:31.314Z,4.84
2022-11-15T06:23:31.497Z,4.85
2022-11-15T06:24:31.260Z,4.86
2022-11-15T06:25:31.274Z,4.89
2022-11-15T06:26:31.372Z,4.91
2022-11-15T06:27:31.233Z,4.92
2022-11-15T06:28:31.231Z,4.91
2022-11-15T06:29:31.235Z,4.89
2022-11-15T06:30:31.206Z,4.88
2022-11-15T06:31:31.203Z,4.85
2022-11-15T06:32:31.217Z,4.85
2022-11-15T06:33:31.411Z,4.85
2022-11-15T06:34:31.142Z,4.80
2022-11-15T06:35:31.133Z,4.78
2022-11-15T06:36:31.176Z,4.75
2022-11-15T06:37:31.208Z,4.73
2022-11-15T06:38:31.140Z,4.73
2022-11-15T06:39:31.108Z,4.70
2022-11-15T06:40:31.116Z,4.72
2022-11-15T06:41:31.078Z,4.72
2022-11-15T06:42:31.090Z,4.73
2022-11-15T06:43:31.379Z,4.73
2022-11-15T06:44:31.077Z,4.73
2022-11-15T06:45:31.073Z,4.75
2022-11-15T06:46:31.061Z,4.77
2022-11-15T06:47:31.068Z,4.75
2022-11-15T06:48:31.010Z,4.77
2022-11-15T06:49:31.018Z,4.73
2022-11-15T06:50:30.982Z,4.75
2022-11-15T06:51:30.970Z,4.78
2022-11-15T06:52:30.983Z,4.82
2022-11-15T06:53:31.165Z,4.84
2022-11-15T06:54:30.949Z,4.85
2022-11-15T06:55:30.964Z,4.88
2022-11-15T06:56:30.900Z,4.89
2022-11-15T06:57:30.943Z,4.92
2022-11-15T06:58:30.888Z,4.92
2022-11-15T06:59:30.887Z,4.92
2022-11-15T07:00:30.853Z,4.89
2022-11-15T07:01:30.855Z,4.88
2022-11-15T07:02:30.862Z,4.85
2022-11-15T07:03:31.185Z,4.86
2022-11-15T07:04:30.822Z,4.85
2022-11-15T07:05:30.803Z,4.86
2022-11-15T07:06:30.769Z,4.85
2022-11-15T07:07:30.911Z,4.84
2022-11-15T07:08:30.804Z,4.82
2022-11-15T07:09:30.817Z,4.80
2022-11-15T07:10:30.721Z,4.80
2022-11-15T07:11:30.755Z,4.82
2022-11-15T07:12:30.719Z,4.85
2022-11-15T07:13:31.045Z,4.85
2022-11-15T07:14:30.715Z,4.86
2022-11-15T07:15:30.741Z,4.86
2022-11-15T07:16:30.694Z,4.85
2022-11-15T07:17:30.655Z,4.85
2022-11-15T07:18:30.656Z,4.82
2022-11-15T07:19:30.640Z,4.82
2022-11-15T07:20:30.648Z,4.80
2022-11-15T07:21:30.625Z,4.78
2022-11-15T07:22:30.598Z,4.78
2022-11-15T07:23:30.824Z,4.82
2022-11-15T07:24:30.577Z,4.78
2022-11-15T07:25:30.561Z,4.82
2022-11-15T07:26:30.610Z,4.84
2022-11-15T07:27:30.528Z,4.82
2022-11-15T07:28:30.536Z,4.85
2022-11-15T07:29:30.539Z,4.85
2022-11-15T07:30:30.536Z,4.84
2022-11-15T07:31:30.524Z,4.86
2022-11-15T07:32:30.568Z,4.88
2022-11-15T07:33:30.756Z,4.89
2022-11-15T07:34:30.498Z,4.88
2022-11-15T07:35:30.449Z,4.89
2022-11-15T07:36:30.469Z,4.92
2022-11-15T07:37:30.426Z,4.92
2022-11-15T07:38:30.407Z,4.94
2022-11-15T07:39:30.468Z,4.97
2022-11-15T07:40:30.463Z,4.97
2022-11-15T07:41:30.435Z,4.99
2022-11-15T07:42:30.389Z,5.00
2022-11-15T07:43:30.719Z,5.00
2022-11-15T07:44:30.372Z,5.02
2022-11-15T07:45:30.392Z,5.02
2022-11-15T07:46:30.308Z,5.04
2022-11-15T07:47:30.311Z,5.09
2022-11-15T07:48:42.622Z,5.10
2022-11-15T07:49:31.321Z,5.10
2022-11-15T07:50:30.346Z,5.10
2022-11-15T07:51:30.264Z,5.13
2022-11-15T07:52:30.290Z,5.13
2022-11-15T07:53:30.681Z,5.15
2022-11-15T07:54:30.213Z,5.15
2022-11-15T07:55:30.231Z,5.17
2022-11-15T07:56:30.243Z,5.15
2022-11-15T07:57:30.179Z,5.20
2022-11-15T07:58:30.213Z,5.22
2022-11-15T07:59:30.199Z,5.25
2022-11-15T08:00:30.207Z,5.24
2022-11-15T08:01:30.253Z,5.28
2022-11-15T08:02:30.700Z,5.31
2022-11-15T08:03:30.468Z,5.33
2022-11-15T08:04:30.106Z,5.36
2022-11-15T08:05:30.132Z,5.38
2022-11-15T08:06:30.100Z,5.39
2022-11-15T08:07:30.109Z,5.40
2022-11-15T08:08:30.058Z,5.45
2022-11-15T08:09:30.093Z,5.46
2022-11-15T08:10:30.173Z,5.49
2022-11-15T08:11:30.042Z,5.53
2022-11-15T08:12:30.149Z,5.51
2022-11-15T08:13:30.233Z,5.54
2022-11-15T08:14:30.034Z,5.57
2022-11-15T08:15:29.972Z,5.60
2022-11-15T08:16:29.998Z,5.65
2022-11-15T08:17:29.990Z,5.68
2022-11-15T08:18:29.970Z,5.72
2022-11-15T08:19:29.956Z,5.75
2022-11-15T08:20:29.947Z,5.74
2022-11-15T08:21:29.935Z,5.76
2022-11-15T08:22:29.904Z,5.79
2022-11-15T08:23:30.326Z,5.81
2022-11-15T08:24:29.869Z,5.83
2022-11-15T08:25:29.846Z,5.85
2022-11-15T08:26:29.850Z,5.89
2022-11-15T08:27:29.887Z,5.90
2022-11-15T08:28:29.876Z,5.93
2022-11-15T08:29:29.849Z,5.94
2022-11-15T08:30:29.814Z,5.97
2022-11-15T08:31:29.800Z,6.01
2022-11-15T08:32:29.811Z,6.04
2022-11-15T08:33:30.168Z,6.08
2022-11-15T08:34:29.738Z,6.12
2022-11-15T08:35:29.782Z,6.14
2022-11-15T08:36:36.043Z,6.18
2022-11-15T08:37:30.717Z,6.21
2022-11-15T08:38:30.108Z,6.25
2022-11-15T08:39:29.774Z,6.28
2022-11-15T08:40:29.853Z,6.31
2022-11-15T08:41:29.683Z,6.34
2022-11-15T08:42:29.794Z,6.37
2022-11-15T08:43:30.076Z,6.37
2022-11-15T08:44:29.684Z,6.41
2022-11-15T08:45:29.635Z,6.44
2022-11-15T08:46:29.654Z,6.48
2022-11-15T08:47:29.624Z,6.49
2022-11-15T08:48:29.823Z,6.55
2022-11-15T08:49:29.612Z,6.56
2022-11-15T08:50:29.576Z,6.61
2022-11-15T08:51:29.562Z,6.66
2022-11-15T08:52:29.635Z,6.70
2022-11-15T08:53:29.552Z,6.76
2022-11-15T08:54:29.542Z,6.79
2022-11-15T08:55:29.534Z,6.84
2022-11-15T08:56:29.502Z,6.85
2022-11-15T08:57:29.673Z,6.88
2022-11-15T08:58:29.825Z,6.88
2022-11-15T08:59:29.489Z,6.92
2022-11-15T09:00:29.453Z,6.95
2022-11-15T09:01:29.587Z,6.98
2022-11-15T09:02:29.467Z,7.03
2022-11-15T09:03:29.475Z,7.06
2022-11-15T09:04:29.427Z,7.10
2022-11-15T09:05:29.399Z,7.13
2022-11-15T09:06:29.458Z,7.17
2022-11-15T09:07:29.433Z,7.21
2022-11-15T09:09:30.348Z,7.24
2022-11-15T09:10:29.360Z,7.30
2022-11-15T09:11:29.343Z,7.34
2022-11-15T09:12:29.348Z,7.37
2022-11-15T09:13:29.333Z,7.40
2022-11-15T09:14:29.377Z,7.45
2022-11-15T09:15:29.340Z,7.49
2022-11-15T09:16:29.305Z,7.58
2022-11-15T09:17:29.282Z,7.71
2022-11-15T09:18:29.512Z,7.82
2022-11-15T09:19:29.271Z,7.93
2022-11-15T09:20:29.219Z,8.10
2022-11-15T09:21:29.233Z,8.26
2022-11-15T09:22:29.292Z,8.56
2022-11-15T09:23:29.193Z,9.36
2022-11-15T09:24:32.788Z,10.42
2022-11-15T09:25:29.196Z,11.29
2022-11-15T09:26:29.150Z,12.07
2022-11-15T09:27:29.190Z,12.75
2022-11-15T09:28:29.613Z,13.26
2022-11-15T09:29:29.172Z,13.66
2022-11-15T09:30:29.221Z,13.95
2022-11-15T09:31:29.113Z,14.24
2022-11-15T09:32:29.995Z,14.45
2022-11-15T09:33:29.509Z,14.77
2022-11-15T09:34:29.153Z,14.89
2022-11-15T09:35:29.072Z,14.99
2022-11-15T09:36:29.071Z,15.11
2022-11-15T09:37:29.047Z,15.43
2022-11-15T09:38:29.485Z,15.69
2022-11-15T09:39:30.108Z,15.87
2022-11-15T09:40:29.023Z,15.96
2022-11-15T09:41:29.009Z,16.05
2022-11-15T09:42:28.996Z,16.33
2022-11-15T09:43:29.038Z,16.39
2022-11-15T09:44:29.011Z,16.42
2022-11-15T09:45:28.940Z,16.61
2022-11-15T09:46:28.981Z,16.42
2022-11-15T09:47:28.960Z,16.60
2022-11-15T09:48:29.665Z,16.57
2022-11-15T09:49:28.957Z,16.25
2022-11-15T09:50:28.902Z,15.17
2022-11-15T09:51:28.869Z,13.97
2022-11-15T09:52:28.861Z,13.49
2022-11-15T09:55:00.012Z,13.08
2022-11-15T09:55:38.955Z,12.92
2022-11-15T09:56:40.457Z,12.87
2022-11-15T09:57:38.936Z,12.78
2022-11-15T09:58:38.924Z,12.52
2022-11-15T09:59:38.998Z,12.29
2022-11-15T10:00:46.305Z,12.09
2022-11-15T10:01:40.968Z,12.02
2022-11-15T10:02:38.888Z,12.04
2022-11-15T10:03:38.876Z,12.12
2022-11-15T10:04:38.881Z,12.28
2022-11-15T10:05:39.126Z,12.49
2022-11-15T10:06:39.198Z,12.95
2022-11-15T10:07:38.867Z,13.69
2022-11-15T10:08:38.820Z,14.57
2022-11-15T10:09:38.789Z,15.39
2022-11-15T10:10:38.817Z,16.08
2022-11-15T10:11:39.607Z,16.67
2022-11-15T10:12:38.773Z,16.94
2022-11-15T10:13:38.742Z,16.98
2022-11-15T10:14:38.751Z,17.03
2022-11-15T10:15:38.755Z,17.21
2022-11-15T10:16:38.723Z,17.18
2022-11-15T10:17:38.689Z,17.15
2022-11-15T10:18:38.694Z,17.25
2022-11-15T10:19:38.694Z,17.48
2022-11-15T10:20:38.690Z,17.82
2022-11-15T10:21:38.671Z,18.08
2022-11-15T10:22:38.636Z,18.14
2022-11-15T10:23:38.730Z,18.12
2022-11-15T10:24:38.650Z,18.30
2022-11-15T10:25:38.623Z,18.60
2022-11-15T10:26:38.601Z,18.92
2022-11-15T10:27:38.628Z,18.94
2022-11-15T10:28:38.602Z,19.07
2022-11-15T10:29:38.553Z,19.08
2022-11-15T10:30:38.576Z,19.04
2022-11-15T10:31:38.563Z,18.98
2022-11-15T10:32:38.584Z,18.87
2022-11-15T10:33:38.618Z,18.85
2022-11-15T10:34:38.681Z,18.75
2022-11-15T10:35:38.504Z,18.57
2022-11-15T10:36:39.488Z,18.55
2022-11-15T10:37:38.478Z,18.70
2022-11-15T10:38:38.507Z,18.87
2022-11-15T10:39:38.463Z,18.94
2022-11-15T10:40:38.438Z,18.92
2022-11-15T10:41:38.472Z,18.85
2022-11-15T10:42:38.426Z,18.92
2022-11-15T10:43:38.447Z,18.95
2022-11-15T10:44:38.421Z,18.84
2022-11-15T10:45:38.380Z,18.84
2022-11-15T10:46:47.483Z,18.85
2022-11-15T10:47:39.962Z,18.82
2022-11-15T10:48:38.399Z,18.90
2022-11-15T10:49:38.391Z,18.90
2022-11-15T10:50:38.346Z,18.94
2022-11-15T10:51:38.308Z,18.87
2022-11-15T10:52:38.342Z,18.80
2022-11-15T10:53:38.317Z,18.76
2022-11-15T10:54:38.325Z,18.80
2022-11-15T10:55:38.316Z,18.91
2022-11-15T10:56:38.287Z,18.94
2022-11-15T10:57:38.245Z,18.99
2022-11-15T10:58:38.258Z,18.99
2022-11-15T10:59:39.312Z,19.22
2022-11-15T11:00:38.274Z,19.39
2022-11-15T11:01:38.242Z,19.43
2022-11-15T11:02:38.195Z,19.46
2022-11-15T11:03:38.185Z,19.33
2022-11-15T11:04:38.187Z,19.18
2022-11-15T11:05:42.083Z,19.08
2022-11-15T11:06:38.221Z,19.22
2022-11-15T11:07:38.188Z,19.47
2022-11-15T11:08:38.121Z,19.58
2022-11-15T11:09:38.139Z,19.74
2022-11-15T11:10:51.408Z,19.94
2022-11-15T11:11:39.120Z,20.16
2022-11-15T11:12:38.129Z,20.32
2022-11-15T11:13:38.109Z,20.36
2022-11-15T11:14:38.049Z,20.28
2022-11-15T11:15:38.079Z,20.03
2022-11-15T11:16:39.253Z,20.01
2022-11-15T11:17:38.025Z,20.17
2022-11-15T11:18:38.077Z,20.36
2022-11-15T11:19:37.992Z,20.38
2022-11-15T11:20:37.995Z,20.08
2022-11-15T11:21:40.142Z,19.80
2022-11-15T11:22:37.966Z,19.69
2022-11-15T11:23:37.933Z,19.58
2022-11-15T11:24:37.989Z,19.36
2022-11-15T11:25:37.954Z,19.36
2022-11-15T11:26:37.904Z,19.44
2022-11-15T11:27:37.948Z,19.48
2022-11-15T11:28:37.885Z,19.54
2022-11-15T11:29:37.905Z,19.65
2022-11-15T11:30:37.936Z,19.77
2022-11-15T11:31:37.858Z,19.88
2022-11-15T11:32:37.867Z,20.06
2022-11-15T11:33:37.905Z,20.21
2022-11-15T11:34:37.831Z,20.39
2022-11-15T11:35:37.820Z,20.58
2022-11-15T11:36:37.873Z,20.70
2022-11-15T11:37:37.792Z,20.79
2022-11-15T11:38:37.823Z,20.98
2022-11-15T11:39:37.772Z,21.14
2022-11-15T11:40:37.761Z,21.25
2022-11-15T11:41:37.772Z,21.16
2022-11-15T11:42:37.786Z,21.21
2022-11-15T11:43:37.746Z,21.35
2022-11-15T11:44:37.727Z,21.58
2022-11-15T11:45:37.751Z,21.71
2022-11-15T11:46:37.673Z,21.65
2022-11-15T11:47:37.731Z,21.54
2022-11-15T11:48:37.652Z,21.50
2022-11-15T11:49:37.677Z,21.59
2022-11-15T11:50:37.632Z,21.56
2022-11-15T11:51:37.619Z,21.68
2022-11-15T11:52:37.612Z,21.75
2022-11-15T11:53:37.644Z,21.86
2022-11-15T11:54:37.673Z,22.00
2022-11-15T11:55:37.576Z,21.82
2022-11-15T11:56:37.593Z,21.74
2022-11-15T11:57:37.575Z,21.83
2022-11-15T11:58:37.598Z,22.07
2022-11-15T11:59:37.575Z,22.27
2022-11-15T12:00:37.526Z,22.30
2022-11-15T12:01:37.679Z,22.17
2022-11-15T12:02:37.650Z,22.10
2022-11-15T12:03:37.538Z,22.07
2022-11-15T12:04:37.483Z,22.06
2022-11-15T12:05:37.534Z,22.07
2022-11-15T12:06:37.464Z,21.90
2022-11-15T12:07:37.502Z,21.96
2022-11-15T12:08:37.490Z,21.94
2022-11-15T12:09:37.443Z,21.83
2022-11-15T12:10:37.423Z,21.52
2022-11-15T12:11:37.434Z,21.17
2022-11-15T12:12:37.425Z,21.21
2022-11-15T12:13:37.392Z,21.27
2022-11-15T12:14:37.405Z,21.34
2022-11-15T12:15:37.410Z,21.43
2022-11-15T12:16:37.346Z,21.47
2022-11-15T12:17:37.339Z,21.50
2022-11-15T12:18:37.381Z,21.62
2022-11-15T12:19:37.365Z,21.58
2022-11-15T12:20:37.324Z,21.69
2022-11-15T12:21:37.291Z,21.35
2022-11-15T12:22:37.307Z,20.95
2022-11-15T12:23:37.289Z,20.97
2022-11-15T12:24:37.296Z,20.87
2022-11-15T12:25:37.228Z,20.88
2022-11-15T12:26:37.231Z,20.88
2022-11-15T12:27:37.231Z,20.84
2022-11-15T12:28:37.257Z,20.76
2022-11-15T12:29:37.212Z,21.06
2022-11-15T12:30:37.238Z,21.40
2022-11-15T12:31:37.169Z,21.35
2022-11-15T12:32:37.157Z,21.25
2022-11-15T12:33:37.151Z,20.91
2022-11-15T12:34:37.171Z,20.51
2022-11-15T12:35:37.186Z,19.88
2022-11-15T12:36:37.126Z,19.25
2022-11-15T12:37:37.119Z,18.90
2022-11-15T12:38:37.095Z,18.52
2022-11-15T12:39:37.256Z,18.25
2022-11-15T12:40:37.125Z,18.05
2022-11-15T12:41:37.094Z,17.92
2022-11-15T12:42:37.215Z,17.71
2022-11-15T12:43:37.060Z,17.55
2022-11-15T12:44:37.035Z,17.38
2022-11-15T12:45:37.038Z,17.28
2022-11-15T12:46:37.017Z,17.21
2022-11-15T12:47:36.985Z,17.12
2022-11-15T12:48:36.986Z,17.06
2022-11-15T12:49:37.011Z,16.98
2022-11-15T12:50:36.975Z,16.97
2022-11-15T12:51:36.990Z,16.96
2022-11-15T12:52:36.950Z,16.94
2022-11-15T12:53:36.975Z,16.93
2022-11-15T12:54:36.969Z,16.86
2022-11-15T12:55:36.908Z,16.79
2022-11-15T12:56:36.877Z,16.76
2022-11-15T12:57:36.932Z,16.70
2022-11-15T12:58:36.882Z,16.66
2022-11-15T12:59:36.882Z,16.61
2022-11-15T13:00:36.909Z,16.60
2022-11-15T13:01:36.904Z,16.63
2022-11-15T13:02:36.843Z,16.63
2022-11-15T13:03:37.402Z,16.57
2022-11-15T13:04:37.563Z,16.56
2022-11-15T13:05:37.093Z,16.60
2022-11-15T13:06:36.770Z,16.60
2022-11-15T13:07:36.971Z,16.58
2022-11-15T13:08:36.742Z,16.58
2022-11-15T13:09:36.759Z,16.63
2022-11-15T13:10:36.724Z,16.57
2022-11-15T13:11:36.728Z,16.52
2022-11-15T13:12:36.746Z,16.57